Lawton, OK

5:30 PM CST on February 12, 2016 (GMT -0600)
Old Town North | | Change Station
CLOSE
Current Station
Personal Weather Station
Location: Lawton, OK
Elevation: 1168 ft
Nearby Weather Stations

Elev 1168 ft 34.61 °N, 98.41 °W | Updated 40 seconds ago

Clear
Clear
60.3 °F
Feels Like 60.3 °F
N
3.2
Wind Variable Wind from NE

Today
High -- | Low -- °F
--% Chance of Precip.
Yesterday
High -- | Low -- °F
Precip. -- in
Pressure 30.30 in
Visibility 10.0 miles
Clouds Clear
Dew Point 35 °F
Humidity 38%
Rainfall 0.00 in
Snow Depth Not available.
7:22 AM 6:13 PM
Waxing Crescent, 24% visible
METAR KFSI 122258Z AUTO 03013KT 10SM CLR 17/03 A3029 RMK AO2 SLP258 T01650026
Pressure 30.30 in
Visibility 10.0 miles
Clouds Clear
Dew Point 35 °F
Humidity 38%
Rainfall 0.00 in
Snow Depth Not available.
7:22 AM 6:13 PM
Waxing Crescent, 24% visible
METAR KFSI 122258Z AUTO 03013KT 10SM CLR 17/03 A3029 RMK AO2 SLP258 T01650026

10-Day Weather Forecast

Almanac

Astronomy

Feb. 12, 2016 Rise Set
Actual Time
Civil Twilight
Nautical Twilight
Astronomical Twilight
Moon
Length of Visible Light
Length of Day
Tomorrow will be .
, % of the Moon is Illuminated

Today's Extremes

State Highs State Lows

Community

WunderPhotos

Upload Photos

1,892,436 photos uploaded!

WunderBlog® & News

Nearby

Air Quality

  Air Quality AQ Index Pollutant
Not available.

Snow Depth

Station Depth Elevation

Earthquake Activity

City Distance Mag. Time & Date
Minimum magnitude displayed is 2.5.

Coastal Water Temperatures

Place Temperature

Stations

Nearby Weather Stations

Station Location Temp. Windchill Dew Point Humidity Wind Precip. Elev Updated Type
                   

Watches & Warnings

There are currently no watches in effect.